createdAt,value
2018-06-18T00:01:32.454Z,99.90
2018-06-18T00:04:06.453Z,99.90
2018-06-18T00:06:40.486Z,99.90
2018-06-18T00:09:14.550Z,99.90
2018-06-18T00:11:48.662Z,99.90
2018-06-18T00:14:23.525Z,99.90
2018-06-18T00:16:57.416Z,99.90
2018-06-18T00:19:31.434Z,98.80
2018-06-18T00:22:05.526Z,99.90
2018-06-18T00:24:39.536Z,98.90
2018-06-18T00:27:13.655Z,99.90
2018-06-18T00:29:47.712Z,99.90
2018-06-18T00:32:21.806Z,98.60
2018-06-18T00:34:55.893Z,97.40
2018-06-18T00:37:29.941Z,98.90
2018-06-18T00:40:03.954Z,99.40
2018-06-18T00:42:37.945Z,99.70
2018-06-18T00:45:12.774Z,99.30
2018-06-18T00:47:46.757Z,99.20
2018-06-18T00:50:20.586Z,99.90
2018-06-18T00:52:54.599Z,99.00
2018-06-18T00:55:28.768Z,99.90
2018-06-18T00:58:02.729Z,99.90
2018-06-18T01:00:36.890Z,99.90
2018-06-18T01:03:10.933Z,99.90
2018-06-18T01:05:44.993Z,99.90
2018-06-18T01:08:19.694Z,99.90
2018-06-18T01:10:54.322Z,99.90
2018-06-18T01:13:28.245Z,99.90
2018-06-18T01:16:02.273Z,99.90
2018-06-18T01:18:40.801Z,99.90
2018-06-18T01:21:14.665Z,99.90
2018-06-18T01:23:48.757Z,99.90
2018-06-18T01:26:22.873Z,99.90
2018-06-18T01:28:56.913Z,99.90
2018-06-18T01:31:30.900Z,99.90
2018-06-18T01:34:05.018Z,99.90
2018-06-18T01:36:39.067Z,99.90
2018-06-18T01:39:13.048Z,99.90
2018-06-18T01:41:47.140Z,99.90
2018-06-18T01:44:21.153Z,99.90
2018-06-18T01:46:55.217Z,99.90
2018-06-18T01:49:29.213Z,99.90
2018-06-18T01:52:03.297Z,99.90
2018-06-18T01:54:37.381Z,99.90
2018-06-18T01:57:11.362Z,99.90
2018-06-18T01:59:45.346Z,99.90
2018-06-18T02:02:19.440Z,99.90
2018-06-18T02:04:53.468Z,99.90
2018-06-18T02:07:27.561Z,99.90
2018-06-18T02:10:01.668Z,99.90
2018-06-18T02:12:35.769Z,99.90
2018-06-18T02:15:09.745Z,99.90
2018-06-18T02:17:43.763Z,99.90
2018-06-18T02:20:17.758Z,99.90
2018-06-18T02:22:51.854Z,99.90
2018-06-18T02:25:25.897Z,99.90
2018-06-18T02:27:59.913Z,99.90
2018-06-18T02:30:33.898Z,99.90
2018-06-18T02:33:07.993Z,99.90
2018-06-18T02:35:42.077Z,99.90
2018-06-18T02:38:15.945Z,99.90
2018-06-18T02:40:49.926Z,99.90
2018-06-18T02:43:24.665Z,99.90
2018-06-18T02:45:58.590Z,99.90
2018-06-18T02:48:32.668Z,99.90
2018-06-18T02:51:10.729Z,99.90
2018-06-18T02:53:45.351Z,99.90
2018-06-18T02:56:19.268Z,99.90
2018-06-18T02:58:53.166Z,99.90
2018-06-18T03:01:27.169Z,99.90
2018-06-18T03:04:01.917Z,99.90
2018-06-18T03:06:35.863Z,99.90
2018-06-18T03:09:10.646Z,99.90
2018-06-18T03:11:44.500Z,99.90
2018-06-18T03:14:18.405Z,99.90
2018-06-18T03:16:52.444Z,99.90
2018-06-18T03:19:26.489Z,99.90
2018-06-18T03:22:00.505Z,99.90
2018-06-18T03:24:35.125Z,99.90
2018-06-18T03:27:09.037Z,99.90
2018-06-18T03:29:43.028Z,99.90
2018-06-18T03:32:17.037Z,99.90
2018-06-18T03:34:51.047Z,99.90
2018-06-18T03:37:25.119Z,99.90
2018-06-18T03:39:59.154Z,99.90
2018-06-18T03:42:33.168Z,99.90
2018-06-18T03:45:07.210Z,99.90
2018-06-18T03:47:41.192Z,99.90
2018-06-18T03:50:15.165Z,99.90
2018-06-18T03:52:49.231Z,99.90
2018-06-18T03:55:23.266Z,99.90
2018-06-18T03:57:57.315Z,99.90
2018-06-18T04:00:32.141Z,99.90
2018-06-18T04:03:06.192Z,99.90
2018-06-18T04:05:40.230Z,99.90
2018-06-18T04:08:14.223Z,99.90
2018-06-18T04:10:48.346Z,99.90
2018-06-18T04:13:22.449Z,99.90
2018-06-18T04:15:56.580Z,99.90
2018-06-18T04:18:30.686Z,99.90
2018-06-18T04:21:04.793Z,99.90
2018-06-18T04:23:38.785Z,99.90
2018-06-18T04:26:13.547Z,99.90
2018-06-18T04:28:47.437Z,99.90
2018-06-18T04:31:21.438Z,99.90
2018-06-18T04:33:55.449Z,99.90
2018-06-18T04:36:29.466Z,99.90
2018-06-18T04:39:03.586Z,99.90
2018-06-18T04:41:37.513Z,99.90
2018-06-18T04:44:11.609Z,99.90
2018-06-18T04:46:45.631Z,99.90
2018-06-18T04:49:19.740Z,99.90
2018-06-18T04:51:53.734Z,99.90
2018-06-18T04:54:27.756Z,99.90
2018-06-18T04:57:01.796Z,99.90
2018-06-18T04:59:35.798Z,99.90
2018-06-18T05:02:09.902Z,99.90
2018-06-18T05:04:43.963Z,99.90
2018-06-18T05:07:18.044Z,99.90
2018-06-18T05:09:52.143Z,99.90
2018-06-18T05:12:26.869Z,99.90
2018-06-18T05:15:00.798Z,99.90
2018-06-18T05:17:34.805Z,99.90
2018-06-18T05:20:08.905Z,99.90
2018-06-18T05:22:43.009Z,99.90
2018-06-18T05:25:17.127Z,99.90
2018-06-18T05:27:51.957Z,99.90
2018-06-18T05:30:25.837Z,99.90
2018-06-18T05:33:00.514Z,99.90
2018-06-18T05:35:34.541Z,99.90
2018-06-18T05:38:09.342Z,99.90
2018-06-18T05:40:43.315Z,99.90
2018-06-18T05:43:17.331Z,99.90
2018-06-18T05:45:51.367Z,99.90
2018-06-18T05:48:25.394Z,99.90
2018-06-18T05:50:59.351Z,99.90
2018-06-18T05:53:33.446Z,99.90
2018-06-18T05:56:07.394Z,99.90
2018-06-18T05:58:41.560Z,99.90
2018-06-18T06:01:15.633Z,99.90
2018-06-18T06:03:49.684Z,99.90
2018-06-18T06:06:23.666Z,99.90
2018-06-18T06:08:57.656Z,99.90
2018-06-18T06:11:31.749Z,99.90
2018-06-18T06:14:05.855Z,99.70
2018-06-18T06:16:39.976Z,99.90
2018-06-18T06:19:14.098Z,99.90
2018-06-18T06:21:48.065Z,99.90
2018-06-18T06:24:22.771Z,99.90
2018-06-18T06:26:57.507Z,98.40
2018-06-18T06:29:32.264Z,98.20
2018-06-18T06:32:06.864Z,98.90
2018-06-18T06:34:40.791Z,98.90
2018-06-18T06:37:14.793Z,99.40
2018-06-18T06:39:49.605Z,97.70
2018-06-18T06:42:23.574Z,97.80
2018-06-18T06:44:58.329Z,97.60
2018-06-18T06:47:33.069Z,96.90
2018-06-18T06:50:06.978Z,96.90
2018-06-18T06:52:40.983Z,97.00
2018-06-18T06:55:14.981Z,96.00
2018-06-18T06:57:49.010Z,94.90
2018-06-18T07:00:23.063Z,94.00
2018-06-18T07:02:57.134Z,94.00
2018-06-18T07:05:31.236Z,94.20
2018-06-18T07:08:05.368Z,94.00
2018-06-18T07:10:39.469Z,93.80
2018-06-18T07:13:13.554Z,94.30
2018-06-18T07:15:47.570Z,92.70
2018-06-18T07:18:21.616Z,91.30
2018-06-18T07:20:55.652Z,90.20
2018-06-18T07:23:29.713Z,90.70
2018-06-18T07:26:03.788Z,87.50
2018-06-18T07:28:41.046Z,89.10
2018-06-18T07:31:14.913Z,88.90
2018-06-18T07:33:49.705Z,89.30
2018-06-18T07:36:23.797Z,89.50
2018-06-18T07:38:57.857Z,87.80
2018-06-18T07:41:31.925Z,89.00
2018-06-18T07:44:06.013Z,86.50
2018-06-18T07:46:40.035Z,85.10
2018-06-18T07:49:14.047Z,80.50
2018-06-18T07:51:48.098Z,79.50
2018-06-18T07:54:22.153Z,81.90
2018-06-18T07:56:56.188Z,80.20
2018-06-18T07:59:30.230Z,77.80
2018-06-18T08:02:04.200Z,77.80
2018-06-18T08:04:38.238Z,78.10
2018-06-18T08:07:12.270Z,78.20
2018-06-18T08:09:46.257Z,76.80
2018-06-18T08:12:20.265Z,78.80
2018-06-18T08:14:54.226Z,78.10
2018-06-18T08:17:28.280Z,77.40
2018-06-18T08:20:02.381Z,77.30
2018-06-18T08:22:36.501Z,76.30
2018-06-18T08:25:10.533Z,76.60
2018-06-18T08:27:44.601Z,77.70
2018-06-18T08:30:18.637Z,78.40
2018-06-18T08:32:52.678Z,78.80
2018-06-18T08:35:26.782Z,79.00
2018-06-18T08:38:00.821Z,81.00
2018-06-18T08:40:35.546Z,78.80
2018-06-18T08:43:09.669Z,78.90
2018-06-18T08:45:44.411Z,78.40
2018-06-18T08:48:18.523Z,78.40
2018-06-18T08:50:52.632Z,78.00
2018-06-18T08:53:27.337Z,74.90
2018-06-18T08:56:01.430Z,74.80
2018-06-18T08:58:35.568Z,75.70
2018-06-18T09:01:09.674Z,72.30
2018-06-18T09:03:44.513Z,71.50
2018-06-18T09:06:18.369Z,71.40
2018-06-18T09:08:53.109Z,74.40
2018-06-18T09:11:27.197Z,74.50
2018-06-18T09:14:01.436Z,72.80
2018-06-18T09:16:35.610Z,72.00
2018-06-18T09:19:09.706Z,73.30
2018-06-18T09:21:43.826Z,73.10
2018-06-18T09:24:17.714Z,74.30
2018-06-18T09:26:51.746Z,75.00
2018-06-18T09:29:25.824Z,74.40
2018-06-18T09:31:59.901Z,73.40
2018-06-18T09:34:33.847Z,73.40
2018-06-18T09:37:07.923Z,75.20
2018-06-18T09:39:42.818Z,70.50
2018-06-18T09:42:16.942Z,70.00
2018-06-18T09:44:51.023Z,69.20
2018-06-18T09:47:25.129Z,70.30
2018-06-18T09:49:59.990Z,68.40
2018-06-18T09:52:34.081Z,68.40
2018-06-18T09:55:08.029Z,69.70
2018-06-18T09:57:41.995Z,68.70
2018-06-18T10:00:16.014Z,69.50
2018-06-18T10:02:49.957Z,67.40
2018-06-18T10:05:24.679Z,66.50
2018-06-18T10:07:58.682Z,66.50
2018-06-18T10:10:32.796Z,67.00
2018-06-18T10:13:06.814Z,67.80
2018-06-18T10:15:40.898Z,66.00
2018-06-18T10:18:15.082Z,65.10
2018-06-18T10:20:49.162Z,64.70
2018-06-18T10:23:23.390Z,64.80
2018-06-18T10:25:57.545Z,64.90
2018-06-18T10:28:31.703Z,65.10
2018-06-18T10:31:05.743Z,64.50
2018-06-18T10:33:39.737Z,64.50
2018-06-18T10:36:13.800Z,65.70
2018-06-18T10:38:47.846Z,64.70
2018-06-18T10:41:22.574Z,62.90
2018-06-18T10:43:56.679Z,62.90
2018-06-18T10:46:30.789Z,61.70
2018-06-18T10:49:04.825Z,60.00
2018-06-18T10:51:39.509Z,59.60
2018-06-18T10:54:13.563Z,59.50
2018-06-18T10:56:47.521Z,61.20
2018-06-18T10:59:21.438Z,61.30
2018-06-18T11:01:55.410Z,60.80
2018-06-18T11:04:29.558Z,61.20
2018-06-18T11:07:04.446Z,59.00
2018-06-18T11:09:39.309Z,58.70
2018-06-18T11:12:13.364Z,58.60
2018-06-18T11:14:47.345Z,58.80
2018-06-18T11:17:21.684Z,60.00
2018-06-18T11:19:55.427Z,59.00
2018-06-18T11:22:30.290Z,59.40
2018-06-18T11:25:04.446Z,59.20
2018-06-18T11:27:39.176Z,59.10
2018-06-18T11:30:13.304Z,59.10
2018-06-18T11:32:47.282Z,59.50
2018-06-18T11:35:21.313Z,58.70
2018-06-18T11:37:55.290Z,58.40
2018-06-18T11:40:29.442Z,58.60
2018-06-18T11:43:03.451Z,58.90
2018-06-18T11:45:38.393Z,58.40
2018-06-18T11:48:12.673Z,58.40
2018-06-18T11:50:46.835Z,58.40
2018-06-18T11:53:20.984Z,58.90
2018-06-18T11:55:55.179Z,59.00
2018-06-18T11:58:29.139Z,59.60
2018-06-18T12:01:03.162Z,60.10
2018-06-18T12:03:37.899Z,59.40
2018-06-18T12:06:11.990Z,59.30
2018-06-18T12:08:46.177Z,59.60
2018-06-18T12:11:20.351Z,60.30
2018-06-18T12:13:54.443Z,59.00
2018-06-18T12:16:28.329Z,58.90
2018-06-18T12:19:02.339Z,59.50
2018-06-18T12:21:36.486Z,59.80
2018-06-18T12:24:10.413Z,58.40
2018-06-18T12:26:44.533Z,58.00
2018-06-18T12:29:19.254Z,58.20
2018-06-18T12:31:53.355Z,58.20
2018-06-18T12:34:27.387Z,58.80
2018-06-18T12:37:02.203Z,58.20
2018-06-18T12:39:36.293Z,58.20
2018-06-18T12:42:10.391Z,59.10
2018-06-18T12:44:44.438Z,56.90
2018-06-18T12:47:18.571Z,58.00
2018-06-18T12:49:52.521Z,58.20
2018-06-18T12:52:27.391Z,57.00
2018-06-18T12:55:01.469Z,57.00
2018-06-18T12:57:35.602Z,57.60
2018-06-18T13:00:09.522Z,56.60
2018-06-18T13:02:44.223Z,57.00
2018-06-18T13:05:18.362Z,57.00
2018-06-18T13:07:52.475Z,57.20
2018-06-18T13:10:26.569Z,57.10
2018-06-18T13:13:00.667Z,56.60
2018-06-18T13:15:35.536Z,56.60
2018-06-18T13:18:09.558Z,56.60
2018-06-18T13:20:43.621Z,55.90
2018-06-18T13:23:17.722Z,55.60
2018-06-18T13:25:51.776Z,56.50
2018-06-18T13:28:26.739Z,57.00
2018-06-18T13:31:00.790Z,56.10
2018-06-18T13:33:34.737Z,56.20
2018-06-18T13:36:08.953Z,56.00
2018-06-18T13:38:43.044Z,57.40
2018-06-18T13:41:17.134Z,56.90
2018-06-18T13:43:51.323Z,56.80
2018-06-18T13:46:25.410Z,57.90
2018-06-18T13:48:59.535Z,56.50
2018-06-18T13:51:33.626Z,57.40
2018-06-18T13:54:11.481Z,56.40
2018-06-18T13:56:45.452Z,56.30
2018-06-18T13:59:19.693Z,55.50
2018-06-18T14:01:53.697Z,56.90
2018-06-18T14:04:27.813Z,56.80
2018-06-18T14:07:01.864Z,55.90
2018-06-18T14:09:35.823Z,57.30
2018-06-18T14:12:10.751Z,56.40
2018-06-18T14:14:44.881Z,56.30
2018-06-18T14:17:19.072Z,56.40
2018-06-18T14:19:53.094Z,56.50
2018-06-18T14:22:27.195Z,54.90
2018-06-18T14:25:02.174Z,55.00
2018-06-18T14:27:37.066Z,55.50
2018-06-18T14:30:11.148Z,55.30
2018-06-18T14:32:46.046Z,55.00
2018-06-18T14:35:20.086Z,55.10
2018-06-18T14:37:54.132Z,53.50
2018-06-18T14:40:28.099Z,54.60
2018-06-18T14:43:02.182Z,54.00
2018-06-18T14:45:36.290Z,54.50
2018-06-18T14:48:10.364Z,53.00
2018-06-18T14:50:44.487Z,54.20
2018-06-18T14:53:18.696Z,55.30
2018-06-18T14:55:52.876Z,54.60
2018-06-18T14:58:27.016Z,54.80
2018-06-18T15:01:01.550Z,54.80
2018-06-18T15:03:35.814Z,54.30
2018-06-18T15:06:10.718Z,55.20
2018-06-18T15:08:45.230Z,55.10
2018-06-18T15:11:19.969Z,56.00
2018-06-18T15:13:54.589Z,55.90
2018-06-18T15:16:28.701Z,56.20
2018-06-18T15:19:02.828Z,56.10
2018-06-18T15:21:37.891Z,56.80
2018-06-18T15:24:11.918Z,56.50
2018-06-18T15:26:46.829Z,56.20
2018-06-18T15:29:20.841Z,56.10
2018-06-18T15:31:54.895Z,55.80
2018-06-18T15:34:29.329Z,56.60
2018-06-18T15:37:03.465Z,56.60
2018-06-18T15:39:37.549Z,57.50
2018-06-18T15:42:11.763Z,56.30
2018-06-18T15:44:46.722Z,56.90
2018-06-18T15:47:20.845Z,56.90
2018-06-18T15:49:54.919Z,57.90
2018-06-18T15:52:28.969Z,57.20
2018-06-18T15:55:03.044Z,58.20
2018-06-18T15:57:37.902Z,57.10
2018-06-18T16:00:12.076Z,57.00
2018-06-18T16:02:46.126Z,57.10
